Aviation weather information 2021-01-28 06:24 UTC

TAF(FCEO32)
FCEO32 EETN 280400
TAF EEKA 280400Z 2805/2811 VRB02KT 9999 SCT015 OVC025 PROB40
     TEMPO 2805/2811 BKN008=
FCEO32 EETN 280400
TAF EEKE 280400Z 2805/2811 VRB02KT 9999 SCT015 BKN025 TEMPO
     2805/2809 2000 BR BKN006 BECMG 2807/2809 10010KT=

TAF(FTEO31)
FTEO31 EETN 280500
TAF EETN 280525Z 2806/2906 28010KT 9999 SCT015 BKN025 PROB40
     TEMPO 2806/2810 4000 SN BKN006 BECMG 2810/2812 01007KT PROB40
     TEMPO 2810/2815 3000 -FZDZ SN BKN010 BECMG 2822/2824 5000 SN
     OVC008 TEMPO 2903/2906 2000 BKN004 OVC010=

TAF(FTEO33)
FTEO33 EEEI 280530
TAF EEEI 280530Z 2806/2906 21005KT 9999 SCT015 BKN018 BECMG
     2814/2816 03005KT TEMPO 2818/2823 2000 BR BKN003 TEMPO 2903/2906
     1500 SHSN BKN004 SCT020TCU= 

Weather observation (METAR/SPECI)
METAR EETN 280620Z 30004KT 9999 BKN015 M01/M04 Q1003 R08/810295
NOSIG=
METAR EEEI 280550Z 27002KT 9999 FEW012 BKN029 M01/M02 Q1003
R24/290095 NOSIG=
METAR EETU 280620Z 29005KT 260V340 9999 SCT009 OVC012 M01/M03 Q1003=
METAR EEPU 280550Z NIL=
METAR EEKE 280620Z 00000KT 9999 BKN028 M01/M03 Q1004 R17/190095=
METAR EEKA 280620Z 21003KT 160V240 9999 OVC023 M02/M04 Q1003=